ACA146 CYYC-CYYZ
Flight info
| Callsign | ACA146 |
|---|---|
| Flight time | 3h 22m |
| Altitude | 33000 |
| Route | LOMLO Q961 DAPOP DCT UDBOX/N0457F350 DCT YQT DCT OTNIK BOXUM7 |
| Aircraft | A321/M-SDE3FGHIRWY/LB1 |
Departure
| Time | 2026-05-05 19:17 |
|---|---|
| Airport | Calgary International Airport (CYYC) |
Arrival
| Time | 2026-05-05 22:40 |
|---|---|
| Airport | Toronto Pearson International Airport (CYYZ) |
| Time | Latitude | Longitude | Altitude | Speed | Heading |
|---|---|---|---|---|---|
| 2026-05-05 18:22 | 51.12808 | -114.00816 | 3560 ft | 0 kts | 358° |
| 2026-05-05 19:05 | 51.12804 | -114.00815 | 3559 ft | 3 kts | 358° |
| 2026-05-05 19:05 | 51.12777 | -114.00814 | 3557 ft | 4 kts | 0° |
| 2026-05-05 19:06 | 51.12753 | -114.00814 | 3559 ft | 1 kts | 358° |
| 2026-05-05 19:09 | 51.12755 | -114.00813 | 3555 ft | 0 kts | 10° |
| 2026-05-05 19:09 | 51.12759 | -114.00806 | 3558 ft | 2 kts | 43° |
| 2026-05-05 19:10 | 51.12746 | -114.00759 | 3556 ft | 8 kts | 122° |
| 2026-05-05 19:10 | 51.12686 | -114.00765 | 3559 ft | 13 kts | 215° |
| 2026-05-05 19:10 | 51.12616 | -114.00850 | 3559 ft | 12 kts | 254° |
| 2026-05-05 19:10 | 51.12608 | -114.00965 | 3555 ft | 7 kts | 229° |
| 2026-05-05 19:11 | 51.12597 | -114.00927 | 3558 ft | 11 kts | 83° |
| 2026-05-05 19:11 | 51.12613 | -114.00752 | 3558 ft | 17 kts | 91° |
| 2026-05-05 19:11 | 51.12613 | -114.00573 | 3559 ft | 16 kts | 90° |
| 2026-05-05 19:11 | 51.12613 | -114.00378 | 3559 ft | 17 kts | 90° |
| 2026-05-05 19:12 | 51.12613 | -114.00194 | 3559 ft | 18 kts | 90° |
| 2026-05-05 19:12 | 51.12614 | -113.99946 | 3559 ft | 27 kts | 89° |
| 2026-05-05 19:12 | 51.12614 | -113.99673 | 3559 ft | 15 kts | 90° |
| 2026-05-05 19:12 | 51.12612 | -113.99517 | 3560 ft | 14 kts | 101° |
| 2026-05-05 19:13 | 51.12496 | -113.99446 | 3560 ft | 26 kts | 177° |
| 2026-05-05 19:13 | 51.12289 | -113.99446 | 3560 ft | 30 kts | 180° |
| 2026-05-05 19:13 | 51.12087 | -113.99446 | 3556 ft | 28 kts | 180° |
| 2026-05-05 19:13 | 51.11901 | -113.99447 | 3560 ft | 26 kts | 180° |
| 2026-05-05 19:14 | 51.11783 | -113.99447 | 3560 ft | 24 kts | 180° |
| 2026-05-05 19:14 | 51.11618 | -113.99447 | 3559 ft | 23 kts | 180° |
| 2026-05-05 19:14 | 51.11465 | -113.99447 | 3557 ft | 21 kts | 180° |
| 2026-05-05 19:14 | 51.11326 | -113.99448 | 3560 ft | 19 kts | 179° |
| 2026-05-05 19:15 | 51.11205 | -113.99448 | 3557 ft | 16 kts | 180° |
| 2026-05-05 19:15 | 51.11098 | -113.99449 | 3559 ft | 14 kts | 181° |
| 2026-05-05 19:15 | 51.11036 | -113.99373 | 3560 ft | 12 kts | 100° |
| 2026-05-05 19:15 | 51.11033 | -113.99211 | 3561 ft | 17 kts | 90° |
| 2026-05-05 19:16 | 51.11048 | -113.99055 | 3564 ft | 12 kts | 49° |
| 2026-05-05 19:16 | 51.11131 | -113.99038 | 3565 ft | 13 kts | 0° |
| 2026-05-05 19:16 | 51.11326 | -113.99036 | 3563 ft | 57 kts | 360° |
| 2026-05-05 19:16 | 51.11930 | -113.99035 | 3563 ft | 114 kts | 360° |
| 2026-05-05 19:17 | 51.12884 | -113.99034 | 3560 ft | 158 kts | 0° |
| 2026-05-05 19:17 | 51.14034 | -113.99035 | 3988 ft | 165 kts | 0° |
| 2026-05-05 19:17 | 51.15189 | -113.99013 | 4724 ft | 167 kts | 0° |
| 2026-05-05 19:17 | 51.16330 | -113.98981 | 5350 ft | 160 kts | 1° |
| 2026-05-05 19:18 | 51.17408 | -113.98951 | 5880 ft | 155 kts | 0° |
| 2026-05-05 19:18 | 51.18494 | -113.98921 | 6300 ft | 159 kts | 0° |
| 2026-05-05 19:18 | 51.19670 | -113.98986 | 6449 ft | 180 kts | 2° |
| 2026-05-05 19:18 | 51.21038 | -113.98461 | 6378 ft | 229 kts | 25° |
| 2026-05-05 19:19 | 51.22326 | -113.96762 | 6856 ft | 257 kts | 57° |
| 2026-05-05 19:19 | 51.22778 | -113.93941 | 7641 ft | 275 kts | 92° |
| 2026-05-05 19:19 | 51.22180 | -113.90992 | 8532 ft | 287 kts | 117° |
| 2026-05-05 19:19 | 51.21091 | -113.88275 | 9487 ft | 293 kts | 121° |
| 2026-05-05 19:20 | 51.19958 | -113.85543 | 10384 ft | 301 kts | 121° |
| 2026-05-05 19:20 | 51.18756 | -113.82635 | 10756 ft | 326 kts | 121° |
| 2026-05-05 19:20 | 51.17488 | -113.79495 | 11105 ft | 349 kts | 117° |
| 2026-05-05 19:20 | 51.16353 | -113.75977 | 11629 ft | 363 kts | 111° |
| 2026-05-05 19:21 | 51.15366 | -113.72234 | 12428 ft | 369 kts | 108° |
| 2026-05-05 19:21 | 51.14449 | -113.68378 | 13308 ft | 375 kts | 106° |
| 2026-05-05 19:21 | 51.13539 | -113.64453 | 14155 ft | 381 kts | 105° |
| 2026-05-05 19:21 | 51.12595 | -113.60468 | 14893 ft | 389 kts | 105° |
| 2026-05-05 19:22 | 51.11613 | -113.56459 | 15540 ft | 396 kts | 105° |
| 2026-05-05 19:22 | 51.10576 | -113.52370 | 16239 ft | 402 kts | 105° |
| 2026-05-05 19:22 | 51.09502 | -113.48230 | 16878 ft | 408 kts | 104° |
| 2026-05-05 19:22 | 51.08401 | -113.44032 | 17440 ft | 414 kts | 104° |
| 2026-05-05 19:23 | 51.07365 | -113.39703 | 17715 ft | 410 kts | 97° |
| 2026-05-05 19:23 | 51.06781 | -113.35383 | 17961 ft | 405 kts | 87° |
| 2026-05-05 19:23 | 51.06505 | -113.30852 | 18079 ft | 420 kts | 86° |
| 2026-05-05 19:23 | 51.06242 | -113.26128 | 18061 ft | 438 kts | 86° |
| 2026-05-05 19:24 | 51.05966 | -113.21222 | 18061 ft | 454 kts | 87° |
| 2026-05-05 19:24 | 51.05661 | -113.16168 | 18369 ft | 461 kts | 87° |
| 2026-05-05 19:24 | 51.05346 | -113.11098 | 18929 ft | 461 kts | 86° |
| 2026-05-05 19:24 | 51.05031 | -113.06028 | 19357 ft | 461 kts | 86° |
| 2026-05-05 19:25 | 51.04674 | -113.00938 | 19778 ft | 459 kts | 88° |
| 2026-05-05 19:25 | 51.04259 | -112.96008 | 20927 ft | 441 kts | 87° |
| 2026-05-05 19:25 | 51.03843 | -112.91273 | 21928 ft | 428 kts | 86° |
| 2026-05-05 19:25 | 51.03459 | -112.86595 | 22470 ft | 426 kts | 85° |
| 2026-05-05 19:26 | 51.03107 | -112.81921 | 22881 ft | 427 kts | 84° |
| 2026-05-05 19:26 | 51.02778 | -112.77231 | 23335 ft | 428 kts | 83° |
| 2026-05-05 19:26 | 51.02454 | -112.72528 | 23738 ft | 429 kts | 83° |
| 2026-05-05 19:26 | 51.02126 | -112.67805 | 24056 ft | 431 kts | 83° |
| 2026-05-05 19:27 | 51.01789 | -112.63064 | 24374 ft | 434 kts | 83° |
| 2026-05-05 19:27 | 51.01441 | -112.58286 | 24656 ft | 436 kts | 83° |
| 2026-05-05 19:27 | 51.01084 | -112.53492 | 24941 ft | 439 kts | 83° |
| 2026-05-05 19:27 | 51.00718 | -112.48663 | 25216 ft | 441 kts | 84° |
| 2026-05-05 19:28 | 51.00347 | -112.43815 | 25489 ft | 444 kts | 84° |
| 2026-05-05 19:28 | 50.99973 | -112.38941 | 25757 ft | 446 kts | 84° |
| 2026-05-05 19:28 | 50.99596 | -112.34042 | 26034 ft | 448 kts | 84° |
| 2026-05-05 19:28 | 50.99218 | -112.29122 | 26301 ft | 450 kts | 84° |
| 2026-05-05 19:29 | 50.98837 | -112.24176 | 26627 ft | 453 kts | 84° |
| 2026-05-05 19:29 | 50.98453 | -112.19201 | 26859 ft | 455 kts | 84° |
| 2026-05-05 19:29 | 50.98065 | -112.14209 | 27111 ft | 458 kts | 84° |
| 2026-05-05 19:29 | 50.97672 | -112.09179 | 27357 ft | 460 kts | 84° |
| 2026-05-05 19:30 | 50.97281 | -112.04203 | 27592 ft | 462 kts | 84° |
| 2026-05-05 19:30 | 50.96880 | -111.99134 | 27841 ft | 464 kts | 84° |
| 2026-05-05 19:30 | 50.96474 | -111.94047 | 28080 ft | 466 kts | 84° |
| 2026-05-05 19:30 | 50.96061 | -111.88933 | 28312 ft | 468 kts | 84° |
| 2026-05-05 19:31 | 50.95644 | -111.83800 | 28550 ft | 470 kts | 84° |
| 2026-05-05 19:31 | 50.95225 | -111.78646 | 28789 ft | 472 kts | 84° |
| 2026-05-05 19:31 | 50.94804 | -111.73469 | 29063 ft | 474 kts | 84° |
| 2026-05-05 19:31 | 50.94377 | -111.68290 | 29484 ft | 473 kts | 84° |
| 2026-05-05 19:32 | 50.93944 | -111.63126 | 29859 ft | 472 kts | 84° |
| 2026-05-05 19:32 | 50.93510 | -111.57973 | 30191 ft | 471 kts | 83° |
| 2026-05-05 19:32 | 50.93075 | -111.52824 | 30483 ft | 471 kts | 83° |
| 2026-05-05 19:32 | 50.92642 | -111.47681 | 30749 ft | 469 kts | 83° |
| 2026-05-05 19:33 | 50.92318 | -111.42567 | 31025 ft | 463 kts | 80° |
| 2026-05-05 19:33 | 50.92130 | -111.37501 | 31310 ft | 458 kts | 78° |
| 2026-05-05 19:33 | 50.92028 | -111.32471 | 31597 ft | 455 kts | 77° |
| 2026-05-05 19:33 | 50.91956 | -111.27457 | 31886 ft | 454 kts | 77° |
| 2026-05-05 19:34 | 50.91871 | -111.22449 | 32170 ft | 455 kts | 78° |
| 2026-05-05 19:34 | 50.91757 | -111.17441 | 32454 ft | 455 kts | 78° |
| 2026-05-05 19:34 | 50.91612 | -111.12437 | 32876 ft | 453 kts | 78° |
| 2026-05-05 19:35 | 50.91271 | -111.02455 | 33264 ft | 457 kts | 79° |
| 2026-05-05 19:35 | 50.90922 | -110.92295 | 33272 ft | 467 kts | 79° |
| 2026-05-05 19:36 | 50.90571 | -110.82014 | 33271 ft | 474 kts | 79° |
| 2026-05-05 19:36 | 50.90196 | -110.71531 | 33291 ft | 479 kts | 80° |
| 2026-05-05 19:37 | 50.89813 | -110.60933 | 33279 ft | 485 kts | 81° |
| 2026-05-05 19:37 | 50.89619 | -110.55644 | 33652 ft | 477 kts | 81° |
| 2026-05-05 19:37 | 50.89416 | -110.50435 | 34039 ft | 471 kts | 81° |
| 2026-05-05 19:37 | 50.89208 | -110.45282 | 34364 ft | 466 kts | 81° |
| 2026-05-05 19:38 | 50.89002 | -110.40199 | 34729 ft | 460 kts | 81° |
| 2026-05-05 19:38 | 50.88803 | -110.35167 | 35091 ft | 454 kts | 81° |
| 2026-05-05 19:38 | 50.88613 | -110.30201 | 35409 ft | 451 kts | 82° |
| 2026-05-05 19:39 | 50.88250 | -110.20129 | 34671 ft | 473 kts | 81° |
| 2026-05-05 19:39 | 50.88086 | -110.14876 | 33839 ft | 481 kts | 80° |
| 2026-05-05 19:39 | 50.87924 | -110.09604 | 33379 ft | 477 kts | 82° |
| 2026-05-05 19:39 | 50.87756 | -110.04387 | 32997 ft | 471 kts | 82° |
| 2026-05-05 19:40 | 50.87589 | -109.99254 | 32620 ft | 464 kts | 82° |
| 2026-05-05 19:40 | 50.87427 | -109.94189 | 32225 ft | 457 kts | 82° |
| 2026-05-05 19:40 | 50.87245 | -109.89175 | 31851 ft | 456 kts | 85° |
| 2026-05-05 19:40 | 50.86904 | -109.84176 | 31694 ft | 459 kts | 88° |
| 2026-05-05 19:41 | 50.86388 | -109.79174 | 32020 ft | 461 kts | 91° |
| 2026-05-05 19:41 | 50.85957 | -109.74201 | 32306 ft | 452 kts | 84° |
| 2026-05-05 19:41 | 50.85709 | -109.69241 | 32575 ft | 451 kts | 83° |
| 2026-05-05 19:41 | 50.85484 | -109.64302 | 32840 ft | 450 kts | 83° |
| 2026-05-05 19:42 | 50.85267 | -109.59368 | 33151 ft | 450 kts | 85° |
| 2026-05-05 19:42 | 50.84832 | -109.49475 | 33244 ft | 450 kts | 85° |
| 2026-05-05 19:43 | 50.84366 | -109.39597 | 33244 ft | 450 kts | 85° |
| 2026-05-05 19:43 | 50.83880 | -109.29778 | 33239 ft | 451 kts | 86° |
| 2026-05-05 19:44 | 50.83386 | -109.19898 | 33239 ft | 450 kts | 86° |
| 2026-05-05 19:44 | 50.82890 | -109.09961 | 33256 ft | 451 kts | 86° |
| 2026-05-05 19:45 | 50.82382 | -109.00137 | 33268 ft | 451 kts | 87° |
| 2026-05-05 19:45 | 50.81866 | -108.90259 | 33257 ft | 451 kts | 88° |
| 2026-05-05 19:46 | 50.81336 | -108.80373 | 33244 ft | 451 kts | 88° |
| 2026-05-05 19:46 | 50.80806 | -108.70494 | 33240 ft | 451 kts | 88° |
| 2026-05-05 19:47 | 50.80270 | -108.60613 | 33232 ft | 451 kts | 88° |
| 2026-05-05 19:47 | 50.79727 | -108.50729 | 33238 ft | 451 kts | 88° |
| 2026-05-05 19:48 | 50.79164 | -108.40844 | 33232 ft | 451 kts | 88° |
| 2026-05-05 19:48 | 50.78591 | -108.30961 | 33230 ft | 452 kts | 88° |
| 2026-05-05 19:49 | 50.78014 | -108.21077 | 33228 ft | 452 kts | 88° |
| 2026-05-05 19:49 | 50.77432 | -108.11198 | 33228 ft | 452 kts | 88° |
| 2026-05-05 19:50 | 50.76848 | -108.01310 | 33254 ft | 452 kts | 89° |
| 2026-05-05 19:50 | 50.76242 | -107.91433 | 33242 ft | 452 kts | 89° |
| 2026-05-05 19:51 | 50.75626 | -107.81570 | 33228 ft | 451 kts | 89° |
| 2026-05-05 19:51 | 50.75017 | -107.71711 | 33224 ft | 451 kts | 89° |
| 2026-05-05 19:52 | 50.74391 | -107.61850 | 33213 ft | 451 kts | 90° |
| 2026-05-05 19:52 | 50.73759 | -107.51996 | 33242 ft | 451 kts | 90° |
| 2026-05-05 19:53 | 50.73121 | -107.42220 | 33242 ft | 451 kts | 90° |
| 2026-05-05 19:53 | 50.72471 | -107.32386 | 33230 ft | 450 kts | 90° |
| 2026-05-05 19:54 | 50.71818 | -107.22560 | 33216 ft | 450 kts | 90° |
| 2026-05-05 19:54 | 50.71154 | -107.12732 | 33209 ft | 450 kts | 90° |
| 2026-05-05 19:55 | 50.70483 | -107.02911 | 33238 ft | 450 kts | 91° |
| 2026-05-05 19:55 | 50.69804 | -106.93103 | 33221 ft | 450 kts | 91° |
| 2026-05-05 19:56 | 50.69113 | -106.83292 | 33204 ft | 450 kts | 91° |
| 2026-05-05 19:56 | 50.68416 | -106.73492 | 33206 ft | 450 kts | 91° |
| 2026-05-05 19:57 | 50.67715 | -106.63695 | 33191 ft | 449 kts | 91° |
| 2026-05-05 19:57 | 50.67002 | -106.53905 | 33218 ft | 449 kts | 91° |
| 2026-05-05 19:58 | 50.66283 | -106.44118 | 33213 ft | 449 kts | 91° |
| 2026-05-05 19:58 | 50.65555 | -106.34343 | 33203 ft | 449 kts | 92° |
| 2026-05-05 19:59 | 50.64815 | -106.24567 | 33205 ft | 449 kts | 92° |
| 2026-05-05 19:59 | 50.64067 | -106.14790 | 33191 ft | 449 kts | 92° |
| 2026-05-05 20:00 | 50.63305 | -106.05026 | 33183 ft | 449 kts | 92° |
| 2026-05-05 20:00 | 50.62549 | -105.95326 | 33195 ft | 449 kts | 92° |
| 2026-05-05 20:01 | 50.61784 | -105.85562 | 33183 ft | 449 kts | 92° |
| 2026-05-05 20:01 | 50.61010 | -105.75803 | 33165 ft | 449 kts | 92° |
| 2026-05-05 20:02 | 50.60229 | -105.66042 | 33158 ft | 449 kts | 92° |
| 2026-05-05 20:02 | 50.59566 | -105.57875 | 33151 ft | 449 kts | 92° |
| 2026-05-05 20:03 | 50.58764 | -105.48136 | 33167 ft | 449 kts | 92° |
| 2026-05-05 20:03 | 50.57952 | -105.38388 | 33149 ft | 449 kts | 92° |
| 2026-05-05 20:04 | 50.57132 | -105.28655 | 33149 ft | 449 kts | 92° |
| 2026-05-05 20:04 | 50.56305 | -105.18912 | 33147 ft | 450 kts | 92° |
| 2026-05-05 20:05 | 50.55484 | -105.09225 | 33150 ft | 450 kts | 92° |
| 2026-05-05 20:05 | 50.54645 | -104.99458 | 33144 ft | 451 kts | 93° |
| 2026-05-05 20:06 | 50.53787 | -104.89690 | 33121 ft | 451 kts | 93° |
| 2026-05-05 20:06 | 50.52923 | -104.79921 | 33103 ft | 452 kts | 93° |
| 2026-05-05 20:07 | 50.52053 | -104.70135 | 33094 ft | 452 kts | 93° |
| 2026-05-05 20:07 | 50.51175 | -104.60360 | 33095 ft | 452 kts | 93° |
| 2026-05-05 20:08 | 50.50286 | -104.50579 | 33126 ft | 452 kts | 93° |
| 2026-05-05 20:08 | 50.49392 | -104.40808 | 33121 ft | 452 kts | 93° |
| 2026-05-05 20:09 | 50.48485 | -104.31038 | 33121 ft | 452 kts | 93° |
| 2026-05-05 20:09 | 50.47570 | -104.21268 | 33119 ft | 452 kts | 93° |
| 2026-05-05 20:10 | 50.46649 | -104.11500 | 33127 ft | 453 kts | 94° |
| 2026-05-05 20:10 | 50.45716 | -104.01722 | 33129 ft | 453 kts | 94° |
| 2026-05-05 20:11 | 50.44775 | -103.91938 | 33127 ft | 453 kts | 94° |
| 2026-05-05 20:11 | 50.43832 | -103.82153 | 33118 ft | 454 kts | 94° |
| 2026-05-05 20:12 | 50.42877 | -103.72371 | 33114 ft | 454 kts | 94° |
| 2026-05-05 20:12 | 50.41911 | -103.62591 | 33112 ft | 454 kts | 94° |
| 2026-05-05 20:13 | 50.40937 | -103.52810 | 33103 ft | 454 kts | 94° |
| 2026-05-05 20:13 | 50.39954 | -103.43035 | 33106 ft | 454 kts | 94° |
| 2026-05-05 20:14 | 50.38963 | -103.33255 | 33108 ft | 454 kts | 94° |
| 2026-05-05 20:14 | 50.37969 | -103.23477 | 33105 ft | 454 kts | 95° |
| 2026-05-05 20:15 | 50.36968 | -103.13766 | 33102 ft | 454 kts | 95° |
| 2026-05-05 20:15 | 50.35956 | -103.04002 | 33104 ft | 455 kts | 95° |
| 2026-05-05 20:16 | 50.34936 | -102.94228 | 33120 ft | 455 kts | 95° |
| 2026-05-05 20:16 | 50.33900 | -102.84464 | 33110 ft | 455 kts | 95° |
| 2026-05-05 20:17 | 50.32853 | -102.74694 | 33106 ft | 455 kts | 95° |
| 2026-05-05 20:17 | 50.31799 | -102.64929 | 33103 ft | 455 kts | 95° |
| 2026-05-05 20:18 | 50.30745 | -102.55168 | 33097 ft | 455 kts | 95° |
| 2026-05-05 20:18 | 50.29683 | -102.45421 | 33114 ft | 455 kts | 96° |
| 2026-05-05 20:19 | 50.28615 | -102.35676 | 33111 ft | 454 kts | 96° |
| 2026-05-05 20:19 | 50.27533 | -102.25945 | 33097 ft | 454 kts | 96° |
| 2026-05-05 20:20 | 50.26443 | -102.16219 | 33084 ft | 454 kts | 96° |
| 2026-05-05 20:20 | 50.25346 | -102.06505 | 33092 ft | 454 kts | 96° |
| 2026-05-05 20:21 | 50.24243 | -101.96780 | 33087 ft | 455 kts | 97° |
| 2026-05-05 20:21 | 50.23131 | -101.87038 | 33082 ft | 456 kts | 97° |
| 2026-05-05 20:22 | 50.21999 | -101.77292 | 33085 ft | 457 kts | 97° |
| 2026-05-05 20:22 | 50.20858 | -101.67536 | 33086 ft | 457 kts | 97° |
| 2026-05-05 20:23 | 50.19722 | -101.57777 | 33087 ft | 457 kts | 97° |
| 2026-05-05 20:23 | 50.18581 | -101.48094 | 33105 ft | 457 kts | 97° |
| 2026-05-05 20:24 | 50.17411 | -101.38336 | 33096 ft | 458 kts | 98° |
| 2026-05-05 20:24 | 50.16240 | -101.28582 | 33094 ft | 458 kts | 98° |
| 2026-05-05 20:25 | 50.15063 | -101.18834 | 33085 ft | 457 kts | 98° |
| 2026-05-05 20:25 | 50.13879 | -101.09099 | 33082 ft | 457 kts | 98° |
| 2026-05-05 20:26 | 50.12681 | -100.99364 | 33090 ft | 457 kts | 98° |
| 2026-05-05 20:26 | 50.11477 | -100.89626 | 33071 ft | 458 kts | 98° |
| 2026-05-05 20:27 | 50.10270 | -100.79875 | 33071 ft | 459 kts | 98° |
| 2026-05-05 20:27 | 50.09055 | -100.70109 | 33071 ft | 460 kts | 98° |
| 2026-05-05 20:28 | 50.07818 | -100.60336 | 33076 ft | 460 kts | 99° |
| 2026-05-05 20:28 | 50.06571 | -100.50564 | 33096 ft | 461 kts | 99° |
| 2026-05-05 20:29 | 50.05325 | -100.40786 | 33091 ft | 461 kts | 99° |
| 2026-05-05 20:29 | 50.04069 | -100.31010 | 33088 ft | 461 kts | 99° |
| 2026-05-05 20:30 | 50.02798 | -100.21245 | 33085 ft | 461 kts | 99° |
| 2026-05-05 20:30 | 50.01527 | -100.11554 | 33083 ft | 460 kts | 99° |
| 2026-05-05 20:31 | 50.00242 | -100.01798 | 33094 ft | 461 kts | 99° |
| 2026-05-05 20:31 | 49.99023 | -99.92022 | 33082 ft | 461 kts | 98° |
| 2026-05-05 20:32 | 49.97908 | -99.82214 | 33072 ft | 461 kts | 98° |
| 2026-05-05 20:32 | 49.96804 | -99.72404 | 33071 ft | 461 kts | 98° |
| 2026-05-05 20:33 | 49.95656 | -99.62593 | 33075 ft | 461 kts | 98° |
| 2026-05-05 20:33 | 49.94481 | -99.52799 | 33088 ft | 462 kts | 98° |
| 2026-05-05 20:34 | 49.93305 | -99.43002 | 33078 ft | 461 kts | 98° |
| 2026-05-05 20:34 | 49.92135 | -99.33213 | 33075 ft | 462 kts | 98° |
| 2026-05-05 20:35 | 49.90936 | -99.23427 | 33074 ft | 462 kts | 99° |
| 2026-05-05 20:35 | 49.89731 | -99.13645 | 33073 ft | 462 kts | 99° |
| 2026-05-05 20:36 | 49.88526 | -99.03865 | 33077 ft | 462 kts | 99° |
| 2026-05-05 20:36 | 49.87311 | -98.94088 | 33071 ft | 462 kts | 99° |
| 2026-05-05 20:37 | 49.86092 | -98.84310 | 33068 ft | 462 kts | 99° |
| 2026-05-05 20:37 | 49.84869 | -98.74594 | 33058 ft | 462 kts | 99° |
| 2026-05-05 20:38 | 49.83624 | -98.64812 | 33061 ft | 463 kts | 99° |
| 2026-05-05 20:38 | 49.82372 | -98.55023 | 33060 ft | 464 kts | 99° |
| 2026-05-05 20:39 | 49.81112 | -98.45223 | 33062 ft | 464 kts | 99° |
| 2026-05-05 20:39 | 49.79845 | -98.35425 | 33043 ft | 464 kts | 99° |
| 2026-05-05 20:40 | 49.78566 | -98.25631 | 33046 ft | 464 kts | 99° |
| 2026-05-05 20:40 | 49.77279 | -98.15842 | 33051 ft | 464 kts | 100° |
| 2026-05-05 20:41 | 49.75984 | -98.06049 | 33057 ft | 465 kts | 99° |
| 2026-05-05 20:41 | 49.74681 | -97.96247 | 33060 ft | 465 kts | 100° |
| 2026-05-05 20:42 | 49.73362 | -97.86446 | 33054 ft | 466 kts | 100° |
| 2026-05-05 20:42 | 49.72031 | -97.76654 | 33062 ft | 465 kts | 100° |
| 2026-05-05 20:43 | 49.70694 | -97.66865 | 33051 ft | 465 kts | 100° |
| 2026-05-05 20:43 | 49.69355 | -97.57080 | 33034 ft | 466 kts | 100° |
| 2026-05-05 20:44 | 49.68004 | -97.47282 | 33026 ft | 467 kts | 100° |
| 2026-05-05 20:44 | 49.66646 | -97.37481 | 33028 ft | 467 kts | 101° |
| 2026-05-05 20:45 | 49.64590 | -97.22772 | 33033 ft | 468 kts | 100° |
| 2026-05-05 20:45 | 49.63217 | -97.13025 | 33038 ft | 468 kts | 101° |
| 2026-05-05 20:46 | 49.61818 | -97.03231 | 33041 ft | 468 kts | 101° |
| 2026-05-05 20:46 | 49.60416 | -96.93445 | 33045 ft | 467 kts | 101° |
| 2026-05-05 20:47 | 49.59018 | -96.83668 | 33035 ft | 467 kts | 101° |
| 2026-05-05 20:47 | 49.57606 | -96.73904 | 33041 ft | 467 kts | 101° |
| 2026-05-05 20:48 | 49.56175 | -96.64143 | 33034 ft | 467 kts | 102° |
| 2026-05-05 20:48 | 49.54747 | -96.54394 | 33019 ft | 467 kts | 101° |
| 2026-05-05 20:49 | 49.53317 | -96.44640 | 33007 ft | 467 kts | 102° |
| 2026-05-05 20:49 | 49.51872 | -96.34878 | 33011 ft | 467 kts | 102° |
| 2026-05-05 20:50 | 49.50661 | -96.26781 | 33020 ft | 467 kts | 102° |
| 2026-05-05 20:50 | 49.49189 | -96.17036 | 33012 ft | 468 kts | 102° |
| 2026-05-05 20:51 | 49.47715 | -96.07294 | 33004 ft | 468 kts | 102° |
| 2026-05-05 20:51 | 49.46233 | -95.97553 | 33002 ft | 468 kts | 102° |
| 2026-05-05 20:52 | 49.44737 | -95.87827 | 32989 ft | 468 kts | 102° |
| 2026-05-05 20:52 | 49.43239 | -95.78108 | 32997 ft | 467 kts | 102° |
| 2026-05-05 20:53 | 49.41736 | -95.68397 | 32983 ft | 467 kts | 102° |
| 2026-05-05 20:53 | 49.40229 | -95.58677 | 32980 ft | 468 kts | 102° |
| 2026-05-05 20:54 | 49.38715 | -95.48967 | 32963 ft | 468 kts | 103° |
| 2026-05-05 20:54 | 49.37179 | -95.39253 | 32965 ft | 469 kts | 103° |
| 2026-05-05 20:55 | 49.35630 | -95.29543 | 32973 ft | 469 kts | 103° |
| 2026-05-05 20:55 | 49.34073 | -95.19827 | 32972 ft | 469 kts | 103° |
| 2026-05-05 20:56 | 49.32522 | -95.10123 | 32970 ft | 469 kts | 103° |
| 2026-05-05 20:56 | 49.30959 | -95.00424 | 32968 ft | 469 kts | 103° |
| 2026-05-05 20:57 | 49.29389 | -94.90723 | 32968 ft | 469 kts | 103° |
| 2026-05-05 20:57 | 49.27810 | -94.81028 | 32974 ft | 469 kts | 104° |
| 2026-05-05 20:58 | 49.26229 | -94.71413 | 32969 ft | 469 kts | 104° |
| 2026-05-05 20:58 | 49.24628 | -94.61735 | 32966 ft | 468 kts | 104° |
| 2026-05-05 20:59 | 49.23016 | -94.52081 | 32957 ft | 469 kts | 104° |
| 2026-05-05 20:59 | 49.21405 | -94.42423 | 32939 ft | 469 kts | 104° |
| 2026-05-05 21:00 | 49.19784 | -94.32750 | 32935 ft | 470 kts | 104° |
| 2026-05-05 21:00 | 49.18145 | -94.23067 | 32937 ft | 470 kts | 104° |
| 2026-05-05 21:01 | 49.16497 | -94.13385 | 32941 ft | 471 kts | 104° |
| 2026-05-05 21:01 | 49.14843 | -94.03714 | 32935 ft | 471 kts | 104° |
| 2026-05-05 21:02 | 49.13179 | -93.94042 | 32935 ft | 471 kts | 104° |
| 2026-05-05 21:02 | 49.11510 | -93.84375 | 32930 ft | 471 kts | 105° |
| 2026-05-05 21:03 | 49.09832 | -93.74714 | 32932 ft | 471 kts | 105° |
| 2026-05-05 21:03 | 49.08148 | -93.65062 | 32928 ft | 471 kts | 105° |
| 2026-05-05 21:04 | 49.06453 | -93.55416 | 32929 ft | 471 kts | 105° |
| 2026-05-05 21:04 | 49.04743 | -93.45781 | 32925 ft | 471 kts | 105° |
| 2026-05-05 21:05 | 49.03031 | -93.36139 | 32919 ft | 472 kts | 105° |
| 2026-05-05 21:05 | 49.01312 | -93.26483 | 32914 ft | 472 kts | 105° |
| 2026-05-05 21:06 | 48.99597 | -93.16895 | 32920 ft | 473 kts | 105° |
| 2026-05-05 21:06 | 48.97857 | -93.07236 | 32918 ft | 473 kts | 106° |
| 2026-05-05 21:07 | 48.96103 | -92.97576 | 32912 ft | 473 kts | 106° |
| 2026-05-05 21:07 | 48.94342 | -92.87929 | 32912 ft | 474 kts | 106° |
| 2026-05-05 21:08 | 48.92567 | -92.78272 | 32908 ft | 474 kts | 106° |
| 2026-05-05 21:08 | 48.90790 | -92.68626 | 32909 ft | 474 kts | 106° |
| 2026-05-05 21:09 | 48.88997 | -92.58979 | 32909 ft | 474 kts | 106° |
| 2026-05-05 21:09 | 48.87201 | -92.49323 | 32910 ft | 475 kts | 106° |
| 2026-05-05 21:10 | 48.85411 | -92.39744 | 32908 ft | 475 kts | 107° |
| 2026-05-05 21:10 | 48.83601 | -92.30106 | 32910 ft | 475 kts | 107° |
| 2026-05-05 21:11 | 48.81787 | -92.20472 | 32906 ft | 475 kts | 107° |
| 2026-05-05 21:11 | 48.79964 | -92.10849 | 32905 ft | 475 kts | 107° |
| 2026-05-05 21:12 | 48.78121 | -92.01234 | 32898 ft | 475 kts | 107° |
| 2026-05-05 21:12 | 48.76267 | -91.91621 | 32892 ft | 475 kts | 107° |
| 2026-05-05 21:13 | 48.74414 | -91.82008 | 32889 ft | 475 kts | 107° |
| 2026-05-05 21:13 | 48.72568 | -91.72463 | 32889 ft | 475 kts | 107° |
| 2026-05-05 21:14 | 48.70694 | -91.62860 | 32892 ft | 475 kts | 107° |
| 2026-05-05 21:14 | 48.68814 | -91.53259 | 32886 ft | 475 kts | 107° |
| 2026-05-05 21:15 | 48.66925 | -91.43677 | 32883 ft | 475 kts | 108° |
| 2026-05-05 21:15 | 48.65023 | -91.34101 | 32881 ft | 475 kts | 108° |
| 2026-05-05 21:16 | 48.63123 | -91.24524 | 32859 ft | 476 kts | 108° |
| 2026-05-05 21:16 | 48.61215 | -91.14927 | 32857 ft | 477 kts | 108° |
| 2026-05-05 21:17 | 48.59285 | -91.05326 | 32858 ft | 478 kts | 108° |
| 2026-05-05 21:17 | 48.57345 | -90.95734 | 32858 ft | 478 kts | 108° |
| 2026-05-05 21:18 | 48.55402 | -90.86146 | 32857 ft | 478 kts | 108° |
| 2026-05-05 21:18 | 48.53459 | -90.76625 | 32854 ft | 478 kts | 108° |
| 2026-05-05 21:19 | 48.51493 | -90.67043 | 32844 ft | 478 kts | 108° |
| 2026-05-05 21:19 | 48.49525 | -90.57459 | 32847 ft | 479 kts | 108° |
| 2026-05-05 21:20 | 48.47549 | -90.47874 | 32851 ft | 479 kts | 109° |
| 2026-05-05 21:20 | 48.45557 | -90.38302 | 32851 ft | 479 kts | 109° |
| 2026-05-05 21:21 | 48.43557 | -90.28734 | 32818 ft | 479 kts | 109° |
| 2026-05-05 21:21 | 48.41544 | -90.19156 | 32823 ft | 480 kts | 109° |
| 2026-05-05 21:22 | 48.39528 | -90.09574 | 32830 ft | 481 kts | 109° |
| 2026-05-05 21:22 | 48.37500 | -89.99980 | 32835 ft | 482 kts | 109° |
| 2026-05-05 21:23 | 48.35455 | -89.90376 | 32828 ft | 482 kts | 109° |
| 2026-05-05 21:23 | 48.33400 | -89.80774 | 32827 ft | 483 kts | 109° |
| 2026-05-05 21:24 | 48.31343 | -89.71168 | 32826 ft | 483 kts | 109° |
| 2026-05-05 21:24 | 48.29282 | -89.61627 | 32824 ft | 484 kts | 110° |
| 2026-05-05 21:25 | 48.27199 | -89.52016 | 32816 ft | 484 kts | 110° |
| 2026-05-05 21:25 | 48.25066 | -89.42441 | 32814 ft | 483 kts | 112° |
| 2026-05-05 21:26 | 48.22565 | -89.33099 | 32820 ft | 482 kts | 116° |
| 2026-05-05 21:26 | 48.19828 | -89.23919 | 32801 ft | 483 kts | 117° |
| 2026-05-05 21:27 | 48.17093 | -89.14721 | 32801 ft | 483 kts | 116° |
| 2026-05-05 21:27 | 48.14429 | -89.05454 | 32805 ft | 485 kts | 115° |
| 2026-05-05 21:28 | 48.11783 | -88.96170 | 32811 ft | 485 kts | 116° |
| 2026-05-05 21:28 | 48.09109 | -88.86894 | 32812 ft | 485 kts | 116° |
| 2026-05-05 21:29 | 48.06411 | -88.77639 | 32810 ft | 486 kts | 116° |
| 2026-05-05 21:29 | 48.03705 | -88.68388 | 32828 ft | 486 kts | 116° |
| 2026-05-05 21:30 | 48.00999 | -88.59144 | 32820 ft | 486 kts | 116° |
| 2026-05-05 21:30 | 47.98282 | -88.49900 | 32802 ft | 486 kts | 116° |
| 2026-05-05 21:31 | 47.95555 | -88.40653 | 32810 ft | 487 kts | 117° |
| 2026-05-05 21:31 | 47.92826 | -88.31472 | 32812 ft | 488 kts | 117° |
| 2026-05-05 21:32 | 47.90074 | -88.22223 | 32807 ft | 488 kts | 117° |
| 2026-05-05 21:32 | 47.87316 | -88.12975 | 32809 ft | 489 kts | 117° |
| 2026-05-05 21:33 | 47.84544 | -88.03723 | 32816 ft | 489 kts | 117° |
| 2026-05-05 21:33 | 47.81765 | -87.94482 | 32824 ft | 489 kts | 117° |
| 2026-05-05 21:34 | 47.78975 | -87.85244 | 32815 ft | 489 kts | 117° |
| 2026-05-05 21:34 | 47.76169 | -87.76016 | 32808 ft | 490 kts | 118° |
| 2026-05-05 21:35 | 47.73355 | -87.66771 | 32814 ft | 491 kts | 118° |
| 2026-05-05 21:35 | 47.70536 | -87.57519 | 32821 ft | 492 kts | 118° |
| 2026-05-05 21:36 | 47.67699 | -87.48261 | 32835 ft | 493 kts | 118° |
| 2026-05-05 21:36 | 47.64852 | -87.39018 | 32829 ft | 493 kts | 118° |
| 2026-05-05 21:37 | 47.62003 | -87.29761 | 32826 ft | 493 kts | 118° |
| 2026-05-05 21:37 | 47.59146 | -87.20522 | 32833 ft | 493 kts | 118° |
| 2026-05-05 21:38 | 47.56272 | -87.11286 | 32835 ft | 494 kts | 118° |
| 2026-05-05 21:38 | 47.53392 | -87.02057 | 32807 ft | 494 kts | 119° |
| 2026-05-05 21:39 | 47.50511 | -86.92885 | 32819 ft | 495 kts | 119° |
| 2026-05-05 21:39 | 47.47608 | -86.83643 | 32826 ft | 496 kts | 119° |
| 2026-05-05 21:40 | 47.44699 | -86.74407 | 32832 ft | 496 kts | 119° |
| 2026-05-05 21:40 | 47.42250 | -86.66681 | 32824 ft | 496 kts | 119° |
| 2026-05-05 21:41 | 47.39339 | -86.57529 | 32835 ft | 496 kts | 119° |
| 2026-05-05 21:41 | 47.36404 | -86.48321 | 32838 ft | 496 kts | 119° |
| 2026-05-05 21:42 | 47.33461 | -86.39133 | 32836 ft | 495 kts | 119° |
| 2026-05-05 21:42 | 47.30506 | -86.29954 | 32816 ft | 496 kts | 120° |
| 2026-05-05 21:43 | 47.27539 | -86.20780 | 32822 ft | 496 kts | 120° |
| 2026-05-05 21:43 | 47.24568 | -86.11599 | 32840 ft | 497 kts | 120° |
| 2026-05-05 21:44 | 47.21586 | -86.02406 | 32846 ft | 498 kts | 120° |
| 2026-05-05 21:44 | 47.18616 | -85.93267 | 32847 ft | 498 kts | 120° |
| 2026-05-05 21:45 | 47.15622 | -85.84083 | 32836 ft | 498 kts | 121° |
| 2026-05-05 21:45 | 47.12610 | -85.74909 | 32839 ft | 499 kts | 121° |
| 2026-05-05 21:46 | 47.09590 | -85.65744 | 32820 ft | 499 kts | 121° |
| 2026-05-05 21:46 | 47.06557 | -85.56571 | 32832 ft | 500 kts | 121° |
| 2026-05-05 21:47 | 47.03511 | -85.47403 | 32839 ft | 500 kts | 121° |
| 2026-05-05 21:47 | 47.00464 | -85.38230 | 32845 ft | 501 kts | 121° |
| 2026-05-05 21:48 | 46.97405 | -85.29070 | 32849 ft | 501 kts | 121° |
| 2026-05-05 21:48 | 46.94337 | -85.19924 | 32850 ft | 501 kts | 121° |
| 2026-05-05 21:49 | 46.91256 | -85.10787 | 32855 ft | 501 kts | 122° |
| 2026-05-05 21:49 | 46.88174 | -85.01652 | 32839 ft | 501 kts | 122° |
| 2026-05-05 21:50 | 46.85087 | -84.92515 | 32814 ft | 502 kts | 122° |
| 2026-05-05 21:50 | 46.81958 | -84.83323 | 32857 ft | 507 kts | 122° |
| 2026-05-05 21:51 | 46.78812 | -84.74120 | 32859 ft | 507 kts | 122° |
| 2026-05-05 21:51 | 46.75661 | -84.64928 | 32850 ft | 507 kts | 123° |
| 2026-05-05 21:52 | 46.70942 | -84.51195 | 32843 ft | 508 kts | 123° |
| 2026-05-05 21:53 | 46.67770 | -84.42001 | 32847 ft | 508 kts | 123° |
| 2026-05-05 21:53 | 46.64590 | -84.32820 | 32839 ft | 508 kts | 123° |
| 2026-05-05 21:54 | 46.61399 | -84.23637 | 32821 ft | 509 kts | 123° |
| 2026-05-05 21:54 | 46.58192 | -84.14443 | 32820 ft | 510 kts | 123° |
| 2026-05-05 21:55 | 46.54976 | -84.05250 | 32822 ft | 510 kts | 123° |
| 2026-05-05 21:55 | 46.51750 | -83.96063 | 32821 ft | 511 kts | 123° |
| 2026-05-05 21:56 | 46.48507 | -83.86884 | 32805 ft | 511 kts | 124° |
| 2026-05-05 21:56 | 46.45255 | -83.77713 | 32808 ft | 511 kts | 124° |
| 2026-05-05 21:57 | 46.42018 | -83.68603 | 32810 ft | 512 kts | 124° |
| 2026-05-05 21:57 | 46.38393 | -83.59853 | 32771 ft | 502 kts | 134° |
| 2026-05-05 21:58 | 46.34331 | -83.51585 | 32809 ft | 505 kts | 134° |
| 2026-05-05 21:58 | 46.30268 | -83.43302 | 32815 ft | 504 kts | 134° |
| 2026-05-05 21:59 | 46.26205 | -83.35037 | 32815 ft | 504 kts | 134° |
| 2026-05-05 21:59 | 46.22136 | -83.26794 | 32811 ft | 504 kts | 134° |
| 2026-05-05 22:00 | 46.18065 | -83.18571 | 32778 ft | 503 kts | 135° |
| 2026-05-05 22:00 | 46.13980 | -83.10348 | 32817 ft | 506 kts | 135° |
| 2026-05-05 22:01 | 46.09865 | -83.02091 | 32828 ft | 507 kts | 135° |
| 2026-05-05 22:01 | 46.05749 | -82.93844 | 32819 ft | 507 kts | 135° |
| 2026-05-05 22:02 | 46.01631 | -82.85626 | 32791 ft | 506 kts | 135° |
| 2026-05-05 22:02 | 45.97516 | -82.77413 | 32792 ft | 506 kts | 135° |
| 2026-05-05 22:03 | 45.93396 | -82.69223 | 32722 ft | 505 kts | 136° |
| 2026-05-05 22:03 | 45.89258 | -82.61046 | 32798 ft | 507 kts | 136° |
| 2026-05-05 22:04 | 45.85107 | -82.52866 | 32804 ft | 507 kts | 136° |
| 2026-05-05 22:04 | 45.80989 | -82.44754 | 32825 ft | 505 kts | 136° |
| 2026-05-05 22:05 | 45.76849 | -82.36640 | 32827 ft | 504 kts | 136° |
| 2026-05-05 22:05 | 45.72709 | -82.28554 | 32827 ft | 503 kts | 136° |
| 2026-05-05 22:06 | 45.68575 | -82.20489 | 32813 ft | 503 kts | 136° |
| 2026-05-05 22:06 | 45.64427 | -82.12419 | 32812 ft | 503 kts | 137° |
| 2026-05-05 22:07 | 45.60066 | -82.04753 | 32824 ft | 486 kts | 148° |
| 2026-05-05 22:07 | 45.55172 | -81.98179 | 32829 ft | 482 kts | 149° |
| 2026-05-05 22:08 | 45.50278 | -81.91636 | 32827 ft | 482 kts | 149° |
| 2026-05-05 22:08 | 45.45388 | -81.85093 | 32787 ft | 482 kts | 149° |
| 2026-05-05 22:09 | 45.40491 | -81.78562 | 32800 ft | 483 kts | 149° |
| 2026-05-05 22:09 | 45.35573 | -81.72035 | 32809 ft | 483 kts | 149° |
| 2026-05-05 22:10 | 45.30653 | -81.65513 | 32817 ft | 484 kts | 149° |
| 2026-05-05 22:10 | 45.25762 | -81.59042 | 32774 ft | 484 kts | 149° |
| 2026-05-05 22:11 | 45.20796 | -81.52496 | 32852 ft | 489 kts | 149° |
| 2026-05-05 22:11 | 45.15821 | -81.45946 | 32852 ft | 487 kts | 149° |
| 2026-05-05 22:12 | 45.10866 | -81.39419 | 32854 ft | 485 kts | 149° |
| 2026-05-05 22:12 | 45.05915 | -81.32939 | 32850 ft | 484 kts | 149° |
| 2026-05-05 22:13 | 45.00972 | -81.26504 | 32838 ft | 483 kts | 149° |
| 2026-05-05 22:13 | 44.96030 | -81.20077 | 32861 ft | 482 kts | 149° |
| 2026-05-05 22:14 | 44.91106 | -81.13654 | 32826 ft | 483 kts | 149° |
| 2026-05-05 22:14 | 44.86152 | -81.07220 | 32823 ft | 484 kts | 149° |
| 2026-05-05 22:15 | 44.81182 | -81.00792 | 32835 ft | 486 kts | 149° |
| 2026-05-05 22:15 | 44.76189 | -80.94358 | 32849 ft | 487 kts | 149° |
| 2026-05-05 22:16 | 44.71226 | -80.87967 | 32827 ft | 486 kts | 149° |
| 2026-05-05 22:16 | 44.66286 | -80.81602 | 32392 ft | 475 kts | 150° |
| 2026-05-05 22:16 | 44.63848 | -80.78468 | 30668 ft | 479 kts | 150° |
| 2026-05-05 22:17 | 44.61370 | -80.75317 | 29167 ft | 479 kts | 149° |
| 2026-05-05 22:17 | 44.58926 | -80.72196 | 27871 ft | 471 kts | 149° |
| 2026-05-05 22:17 | 44.56529 | -80.69121 | 26625 ft | 463 kts | 149° |
| 2026-05-05 22:17 | 44.54169 | -80.66092 | 25426 ft | 456 kts | 149° |
| 2026-05-05 22:18 | 44.51840 | -80.63116 | 24280 ft | 449 kts | 149° |
| 2026-05-05 22:18 | 44.49546 | -80.60192 | 23125 ft | 443 kts | 149° |
| 2026-05-05 22:18 | 44.47280 | -80.57306 | 21877 ft | 436 kts | 149° |
| 2026-05-05 22:18 | 44.45090 | -80.54510 | 21389 ft | 412 kts | 149° |
| 2026-05-05 22:19 | 44.43053 | -80.51882 | 21067 ft | 386 kts | 149° |
| 2026-05-05 22:19 | 44.41124 | -80.49409 | 20661 ft | 372 kts | 150° |
| 2026-05-05 22:19 | 44.39189 | -80.46983 | 20251 ft | 374 kts | 151° |
| 2026-05-05 22:19 | 44.37247 | -80.44571 | 19844 ft | 373 kts | 150° |
| 2026-05-05 22:20 | 44.35313 | -80.42161 | 19423 ft | 374 kts | 150° |
| 2026-05-05 22:20 | 44.33317 | -80.39683 | 19015 ft | 390 kts | 150° |
| 2026-05-05 22:20 | 44.31291 | -80.37153 | 18612 ft | 392 kts | 149° |
| 2026-05-05 22:20 | 44.29285 | -80.34612 | 18301 ft | 387 kts | 149° |
| 2026-05-05 22:21 | 44.27297 | -80.32085 | 17795 ft | 386 kts | 149° |
| 2026-05-05 22:21 | 44.25320 | -80.29578 | 17468 ft | 379 kts | 149° |
| 2026-05-05 22:21 | 44.23378 | -80.27124 | 17030 ft | 376 kts | 150° |
| 2026-05-05 22:21 | 44.21443 | -80.24696 | 16575 ft | 373 kts | 150° |
| 2026-05-05 22:22 | 44.19519 | -80.22291 | 16102 ft | 370 kts | 149° |
| 2026-05-05 22:22 | 44.17612 | -80.19907 | 15721 ft | 366 kts | 149° |
| 2026-05-05 22:22 | 44.15723 | -80.17549 | 15312 ft | 363 kts | 149° |
| 2026-05-05 22:22 | 44.13861 | -80.15218 | 15067 ft | 355 kts | 149° |
| 2026-05-05 22:23 | 44.12059 | -80.12947 | 14936 ft | 344 kts | 149° |
| 2026-05-05 22:23 | 44.10316 | -80.10746 | 14789 ft | 333 kts | 150° |
| 2026-05-05 22:23 | 44.08610 | -80.08604 | 14498 ft | 328 kts | 150° |
| 2026-05-05 22:23 | 44.06920 | -80.06496 | 14165 ft | 325 kts | 151° |
| 2026-05-05 22:24 | 44.05241 | -80.04413 | 13843 ft | 322 kts | 151° |
| 2026-05-05 22:24 | 44.03575 | -80.02346 | 13507 ft | 320 kts | 151° |
| 2026-05-05 22:24 | 44.01936 | -80.00340 | 13133 ft | 314 kts | 155° |
| 2026-05-05 22:24 | 44.00158 | -79.98648 | 12559 ft | 311 kts | 160° |
| 2026-05-05 22:25 | 43.98338 | -79.97038 | 12246 ft | 307 kts | 160° |
| 2026-05-05 22:25 | 43.96528 | -79.95438 | 11893 ft | 303 kts | 160° |
| 2026-05-05 22:25 | 43.94777 | -79.93895 | 11525 ft | 302 kts | 160° |
| 2026-05-05 22:25 | 43.93010 | -79.92337 | 11148 ft | 300 kts | 160° |
| 2026-05-05 22:26 | 43.91251 | -79.90789 | 10792 ft | 299 kts | 160° |
| 2026-05-05 22:26 | 43.89509 | -79.89254 | 10544 ft | 293 kts | 160° |
| 2026-05-05 22:26 | 43.87826 | -79.87759 | 10429 ft | 282 kts | 160° |
| 2026-05-05 22:26 | 43.86205 | -79.86317 | 10319 ft | 272 kts | 160° |
| 2026-05-05 22:27 | 43.84646 | -79.84892 | 10142 ft | 269 kts | 155° |
| 2026-05-05 22:27 | 43.83237 | -79.83131 | 9862 ft | 273 kts | 149° |
| 2026-05-05 22:27 | 43.81853 | -79.81320 | 9487 ft | 275 kts | 149° |
| 2026-05-05 22:27 | 43.80441 | -79.79478 | 8972 ft | 279 kts | 148° |
| 2026-05-05 22:28 | 43.79034 | -79.77630 | 8455 ft | 278 kts | 148° |
| 2026-05-05 22:28 | 43.77656 | -79.75795 | 7922 ft | 272 kts | 144° |
| 2026-05-05 22:28 | 43.76630 | -79.73552 | 7407 ft | 285 kts | 113° |
| 2026-05-05 22:28 | 43.76555 | -79.70811 | 6910 ft | 290 kts | 75° |
| 2026-05-05 22:29 | 43.77502 | -79.68437 | 6438 ft | 277 kts | 40° |
| 2026-05-05 22:29 | 43.78859 | -79.66616 | 5930 ft | 269 kts | 39° |
| 2026-05-05 22:29 | 43.80144 | -79.64778 | 5418 ft | 262 kts | 41° |
| 2026-05-05 22:29 | 43.81369 | -79.62957 | 4912 ft | 255 kts | 41° |
| 2026-05-05 22:30 | 43.82553 | -79.61184 | 4491 ft | 244 kts | 41° |
| 2026-05-05 22:30 | 43.83678 | -79.59502 | 4074 ft | 234 kts | 42° |
| 2026-05-05 22:30 | 43.84412 | -79.58414 | 4017 ft | 233 kts | 41° |
| 2026-05-05 22:30 | 43.85903 | -79.56226 | 3999 ft | 234 kts | 41° |
| 2026-05-05 22:31 | 43.86645 | -79.55143 | 4011 ft | 235 kts | 41° |
| 2026-05-05 22:31 | 43.87766 | -79.53505 | 4000 ft | 233 kts | 41° |
| 2026-05-05 22:31 | 43.88871 | -79.51888 | 3750 ft | 228 kts | 42° |
| 2026-05-05 22:31 | 43.89961 | -79.50292 | 3190 ft | 228 kts | 43° |
| 2026-05-05 22:32 | 43.91043 | -79.48703 | 3009 ft | 226 kts | 43° |
| 2026-05-05 22:32 | 43.92075 | -79.47055 | 3002 ft | 229 kts | 54° |
| 2026-05-05 22:32 | 43.92578 | -79.44960 | 3007 ft | 233 kts | 85° |
| 2026-05-05 22:32 | 43.92271 | -79.42771 | 3012 ft | 234 kts | 117° |
| 2026-05-05 22:33 | 43.91228 | -79.41100 | 3014 ft | 229 kts | 149° |
| 2026-05-05 22:33 | 43.89883 | -79.39925 | 3014 ft | 228 kts | 152° |
| 2026-05-05 22:33 | 43.88540 | -79.38759 | 3009 ft | 228 kts | 152° |
| 2026-05-05 22:33 | 43.87187 | -79.37644 | 3007 ft | 224 kts | 160° |
| 2026-05-05 22:34 | 43.85697 | -79.37095 | 3010 ft | 220 kts | 180° |
| 2026-05-05 22:34 | 43.84205 | -79.37266 | 3011 ft | 213 kts | 199° |
| 2026-05-05 22:34 | 43.82871 | -79.38087 | 3009 ft | 208 kts | 218° |
| 2026-05-05 22:34 | 43.81807 | -79.39413 | 3015 ft | 206 kts | 230° |
| 2026-05-05 22:35 | 43.80830 | -79.40848 | 3011 ft | 204 kts | 230° |
| 2026-05-05 22:35 | 43.79852 | -79.42284 | 3011 ft | 205 kts | 230° |
| 2026-05-05 22:35 | 43.78869 | -79.43723 | 3007 ft | 208 kts | 230° |
| 2026-05-05 22:35 | 43.77876 | -79.45177 | 3006 ft | 204 kts | 230° |
| 2026-05-05 22:36 | 43.76976 | -79.46485 | 3014 ft | 173 kts | 231° |
| 2026-05-05 22:36 | 43.76217 | -79.47592 | 2952 ft | 152 kts | 231° |
| 2026-05-05 22:36 | 43.75511 | -79.48627 | 2805 ft | 145 kts | 231° |
| 2026-05-05 22:36 | 43.74825 | -79.49632 | 2626 ft | 142 kts | 231° |
| 2026-05-05 22:37 | 43.74143 | -79.50629 | 2443 ft | 144 kts | 231° |
| 2026-05-05 22:37 | 43.73450 | -79.51642 | 2247 ft | 145 kts | 230° |
| 2026-05-05 22:37 | 43.72751 | -79.52662 | 2053 ft | 147 kts | 229° |
| 2026-05-05 22:37 | 43.72048 | -79.53688 | 1854 ft | 147 kts | 229° |
| 2026-05-05 22:38 | 43.71337 | -79.54725 | 1648 ft | 149 kts | 229° |
| 2026-05-05 22:38 | 43.70621 | -79.55769 | 1422 ft | 150 kts | 229° |
| 2026-05-05 22:38 | 43.69912 | -79.56800 | 1198 ft | 146 kts | 231° |
| 2026-05-05 22:38 | 43.69221 | -79.57806 | 995 ft | 144 kts | 231° |
| 2026-05-05 22:39 | 43.68541 | -79.58796 | 795 ft | 142 kts | 231° |
| 2026-05-05 22:39 | 43.67869 | -79.59764 | 620 ft | 138 kts | 228° |
| 2026-05-05 22:39 | 43.67283 | -79.60631 | 561 ft | 101 kts | 226° |
| 2026-05-05 22:39 | 43.66919 | -79.61162 | 568 ft | 53 kts | 225° |
| 2026-05-05 22:40 | 43.66692 | -79.61499 | 567 ft | 37 kts | 229° |
| 2026-05-05 22:40 | 43.66555 | -79.61764 | 561 ft | 25 kts | 258° |
| 2026-05-05 22:40 | 43.66551 | -79.61919 | 565 ft | 14 kts | 302° |
| 2026-05-05 22:40 | 43.66613 | -79.62001 | 565 ft | 9 kts | 318° |
| 2026-05-05 22:41 | 43.66656 | -79.62013 | 570 ft | 9 kts | 19° |
| 2026-05-05 22:41 | 43.66775 | -79.61876 | 568 ft | 32 kts | 41° |
| 2026-05-05 22:41 | 43.66942 | -79.61668 | 566 ft | 32 kts | 42° |
| 2026-05-05 22:41 | 43.67083 | -79.61485 | 570 ft | 23 kts | 43° |
| 2026-05-05 22:42 | 43.67195 | -79.61332 | 570 ft | 21 kts | 53° |
| 2026-05-05 22:42 | 43.67297 | -79.61288 | 566 ft | 19 kts | 324° |
| 2026-05-05 22:42 | 43.67406 | -79.61429 | 566 ft | 22 kts | 318° |
| 2026-05-05 22:42 | 43.67515 | -79.61572 | 570 ft | 21 kts | 317° |
| 2026-05-05 22:43 | 43.67623 | -79.61710 | 567 ft | 21 kts | 317° |
| 2026-05-05 22:43 | 43.67729 | -79.61850 | 566 ft | 21 kts | 316° |
| 2026-05-05 22:43 | 43.67835 | -79.61988 | 562 ft | 21 kts | 316° |
| 2026-05-05 22:43 | 43.67929 | -79.62054 | 566 ft | 14 kts | 8° |
| 2026-05-05 22:44 | 43.67985 | -79.61967 | 562 ft | 12 kts | 71° |
| 2026-05-05 22:44 | 43.68026 | -79.61875 | 565 ft | 11 kts | 44° |
| 2026-05-05 22:44 | 43.68074 | -79.61807 | 565 ft | 9 kts | 47° |
| 2026-05-05 22:44 | 43.68063 | -79.61757 | 563 ft | 6 kts | 150° |
| 2026-05-05 22:45 | 43.68037 | -79.61725 | 567 ft | 5 kts | 137° |
| 2026-05-05 22:45 | 43.68031 | -79.61717 | 569 ft | 0 kts | 137° |